Time;durP1;ratioP1;P1;durP2;ratioP2;P2;SDS_P1;SDS_P2;PMS_P1;PMS_P2;Temp;Humidity;BMP_temperature;BMP_pressure;BME280_temperature;BME280_humidity;BME280_pressure;Samples;Min_cycle;Max_cycle;Signal;HPM_P1;HPM_P2
2023/05/27 00:01:27;;;;;;;0.60;0.60;;;5.80;99.90;;;;;;5070331;28;20040;-74
2023/05/27 00:03:53;;;;;;;0.55;0.55;;;5.70;99.90;;;;;;5052885;28;20486;-74
2023/05/27 00:06:18;;;;;;;0.65;0.65;;;5.80;99.90;;;;;;5070801;28;20056;-74
2023/05/27 00:08:44;;;;;;;0.60;0.60;;;5.90;99.90;;;;;;5069970;28;20067;-73
2023/05/27 00:11:10;;;;;;;0.60;0.60;;;5.80;99.90;;;;;;5053625;28;20040;-74
2023/05/27 00:13:36;;;;;;;0.40;0.40;;;5.80;99.90;;;;;;5070490;28;20131;-74
2023/05/27 00:16:02;;;;;;;0.65;0.65;;;5.80;99.90;;;;;;5069806;28;20040;-74
2023/05/27 00:18:27;;;;;;;0.50;0.50;;;5.70;99.90;;;;;;5070341;28;20045;-74
2023/05/27 00:20:53;;;;;;;0.50;0.50;;;5.70;99.90;;;;;;5071052;28;20047;-74
2023/05/27 00:23:19;;;;;;;0.70;0.70;;;5.70;99.90;;;;;;5054526;28;20036;-73
2023/05/27 00:25:47;;;;;;;0.60;0.60;;;5.70;99.90;;;;;;5062837;28;20075;-74
2023/05/27 00:28:12;;;;;;;0.60;0.60;;;5.60;99.90;;;;;;5107532;28;20040;-74
2023/05/27 00:30:38;;;;;;;0.57;0.57;;;5.60;99.90;;;;;;5073768;28;20081;-74
2023/05/27 00:33:04;;;;;;;0.40;0.40;;;5.70;99.90;;;;;;5073016;28;20048;-74
2023/05/27 00:35:29;;;;;;;0.52;0.52;;;5.70;99.90;;;;;;5033487;28;20044;-74
2023/05/27 00:37:55;;;;;;;0.60;0.60;;;5.50;99.90;;;;;;5049642;28;20044;-74
2023/05/27 00:40:22;;;;;;;0.50;0.50;;;5.60;99.90;;;;;;5033648;28;20572;-74
2023/05/27 00:42:48;;;;;;;0.60;0.60;;;6.00;99.90;;;;;;5044368;28;20151;-73
2023/05/27 00:45:14;;;;;;;0.60;0.60;;;5.50;99.90;;;;;;5092039;28;20048;-74
2023/05/27 00:47:40;;;;;;;0.50;0.50;;;5.60;99.90;;;;;;5052984;28;20044;-73
2023/05/27 00:50:07;;;;;;;0.63;0.63;;;5.60;99.90;;;;;;5069255;28;20040;-74
2023/05/27 00:52:33;;;;;;;0.60;0.60;;;5.50;99.90;;;;;;5069494;28;20059;-74
2023/05/27 00:54:59;;;;;;;0.70;0.70;;;5.50;99.90;;;;;;5052760;28;20032;-74
2023/05/27 00:57:25;;;;;;;0.57;0.57;;;5.40;99.90;;;;;;5069420;28;20044;-74
2023/05/27 00:59:52;;;;;;;0.52;0.52;;;5.50;99.90;;;;;;5069022;28;20043;-74
2023/05/27 01:02:18;;;;;;;0.55;0.55;;;5.40;99.90;;;;;;5052866;28;20155;-73
2023/05/27 01:04:46;;;;;;;0.55;0.55;;;5.30;99.90;;;;;;5053404;28;20156;-74
2023/05/27 01:07:50;;;;;;;0.40;0.40;;;5.30;99.90;;;;;;5068995;28;20036;-74
2023/05/27 01:10:19;;;;;;;0.77;0.77;;;5.30;99.90;;;;;;5069114;28;20097;-74
2023/05/27 01:12:54;;;;;;;0.60;0.60;;;5.40;99.90;;;;;;5048940;28;20150;-73
2023/05/27 01:15:21;;;;;;;0.40;0.40;;;5.20;99.90;;;;;;5065176;28;20108;-72
2023/05/27 01:17:49;;;;;;;0.65;0.65;;;5.30;99.90;;;;;;5052426;28;20047;-73
2023/05/27 01:20:15;;;;;;;0.40;0.40;;;5.40;99.90;;;;;;5069383;28;20470;-73
2023/05/27 01:22:45;;;;;;;;;;;5.40;99.90;;;;;;5067068;28;20500;-73
2023/05/27 01:25:11;;;;;;;0.47;0.47;;;5.60;99.90;;;;;;5083522;28;20370;-73
2023/05/27 01:27:40;;;;;;;0.63;0.63;;;5.70;99.90;;;;;;5069322;28;20051;-73
2023/05/27 01:30:07;;;;;;;0.50;0.50;;;5.90;99.90;;;;;;5068698;28;20054;-73
2023/05/27 01:32:38;;;;;;;0.55;0.55;;;6.00;99.90;;;;;;5052160;28;20402;-74
2023/05/27 01:35:09;;;;;;;0.55;0.55;;;6.10;99.90;;;;;;5069031;28;20493;-74
2023/05/27 01:37:38;;;;;;;0.60;0.60;;;6.40;99.90;;;;;;5069404;28;20043;-74
2023/05/27 01:40:06;;;;;;;0.50;0.50;;;6.30;99.90;;;;;;5068622;28;20052;-73
2023/05/27 01:42:37;;;;;;;0.60;0.60;;;6.40;99.90;;;;;;5075548;28;20040;-73
2023/05/27 01:45:06;;;;;;;0.50;0.50;;;6.50;99.90;;;;;;5076188;28;20111;-73
2023/05/27 01:47:32;;;;;;;0.40;0.40;;;6.50;99.90;;;;;;5068937;28;20079;-73
2023/05/27 01:49:57;;;;;;;;;;;6.50;99.90;;;;;;5068742;28;20074;-74
2023/05/27 01:52:23;;;;;;;0.40;0.40;;;6.50;99.90;;;;;;5068517;28;19920;-73
2023/05/27 01:54:49;;;;;;;0.50;0.50;;;6.50;99.90;;;;;;5052328;28;20040;-74
2023/05/27 01:57:16;;;;;;;0.38;0.38;;;6.40;99.90;;;;;;5051926;28;20048;-74
2023/05/27 01:59:42;;;;;;;0.50;0.50;;;6.40;99.90;;;;;;5069105;28;20090;-73
2023/05/27 02:02:08;;;;;;;0.38;0.38;;;6.30;99.90;;;;;;5068761;28;20040;-73
2023/05/27 02:04:34;;;;;;;0.60;0.60;;;6.60;99.90;;;;;;5069456;28;20131;-73
2023/05/27 02:07:00;;;;;;;0.50;0.50;;;6.20;99.90;;;;;;5047584;28;20037;-73
2023/05/27 02:09:25;;;;;;;0.60;0.60;;;6.10;99.90;;;;;;5032192;28;20041;-73
2023/05/27 02:11:51;;;;;;;0.50;0.50;;;6.00;99.90;;;;;;5048362;28;20049;-73
2023/05/27 02:14:17;;;;;;;0.60;0.60;;;5.90;99.90;;;;;;5022913;28;20040;-73
2023/05/27 02:16:43;;;;;;;0.60;0.60;;;5.90;99.90;;;;;;5068891;28;20410;-73
2023/05/27 02:19:09;;;;;;;0.43;0.43;;;5.80;99.90;;;;;;5067792;28;20035;-73
2023/05/27 02:21:38;;;;;;;0.50;0.50;;;5.80;99.90;;;;;;5088610;28;20048;-73
2023/05/27 02:24:04;;;;;;;0.60;0.60;;;5.80;99.90;;;;;;5072288;28;20472;-73
2023/05/27 02:26:30;;;;;;;0.60;0.60;;;5.80;99.90;;;;;;5092298;28;20076;-73
2023/05/27 02:28:55;;;;;;;0.50;0.50;;;6.00;99.90;;;;;;5072736;28;20074;-73
2023/05/27 02:31:22;;;;;;;0.70;0.70;;;6.00;99.90;;;;;;5055990;28;20045;-73
2023/05/27 02:33:47;;;;;;;0.50;0.50;;;6.10;99.90;;;;;;5072131;28;20101;-73
2023/05/27 02:36:13;;;;;;;0.50;0.50;;;6.20;99.90;;;;;;5072301;28;20044;-73
2023/05/27 02:38:39;;;;;;;0.52;0.52;;;6.30;99.90;;;;;;5055523;28;20095;-73
2023/05/27 02:41:05;;;;;;;0.55;0.55;;;6.30;99.90;;;;;;5055637;28;20451;-73
2023/05/27 02:43:31;;;;;;;0.50;0.50;;;6.40;99.90;;;;;;5086576;28;20036;-73
2023/05/27 02:45:57;;;;;;;0.60;0.60;;;6.80;99.90;;;;;;5055209;28;20049;-73
2023/05/27 02:48:22;;;;;;;0.50;0.50;;;6.50;99.90;;;;;;5055142;28;20048;-73
2023/05/27 02:50:48;;;;;;;0.50;0.50;;;6.50;99.90;;;;;;5072206;28;20144;-73
2023/05/27 02:53:14;;;;;;;0.52;0.52;;;7.00;99.90;;;;;;5039596;28;20533;-73
2023/05/27 02:55:40;;;;;;;0.70;0.70;;;6.40;99.90;;;;;;5072664;28;20040;-73
2023/05/27 02:58:06;;;;;;;0.60;0.60;;;6.30;99.90;;;;;;5055613;28;20055;-73
2023/05/27 03:00:33;;;;;;;0.70;0.70;;;6.30;99.90;;;;;;5039071;28;20044;-73
2023/05/27 03:02:59;;;;;;;0.50;0.50;;;6.20;99.90;;;;;;5069150;28;20046;-73
2023/05/27 03:05:25;;;;;;;0.47;0.47;;;6.20;99.90;;;;;;5051913;28;20045;-73
2023/05/27 03:07:51;;;;;;;0.50;0.50;;;6.10;99.90;;;;;;5051862;28;20049;-73
2023/05/27 03:10:17;;;;;;;0.40;0.40;;;6.40;99.90;;;;;;5051382;28;20506;-73
2023/05/27 03:12:42;;;;;;;0.50;0.50;;;6.00;99.90;;;;;;5051423;28;20064;-73
2023/05/27 03:15:08;;;;;;;0.50;0.50;;;6.00;99.90;;;;;;5049224;28;20149;-73
2023/05/27 03:17:37;;;;;;;0.50;0.50;;;6.00;99.90;;;;;;5070954;28;20036;-73
2023/05/27 03:20:05;;;;;;;0.55;0.55;;;6.00;99.90;;;;;;5070657;28;20048;-73
2023/05/27 03:22:31;;;;;;;0.77;0.77;;;6.00;99.90;;;;;;5070673;28;20059;-73
2023/05/27 03:24:57;;;;;;;0.50;0.50;;;6.10;99.90;;;;;;5050339;28;20434;-73
2023/05/27 03:27:23;;;;;;;0.50;0.50;;;6.10;99.90;;;;;;5050489;28;20049;-74
2023/05/27 03:29:48;;;;;;;0.45;0.45;;;6.10;99.90;;;;;;5034712;28;20044;-74
2023/05/27 03:32:14;;;;;;;0.40;0.40;;;6.20;99.90;;;;;;5050816;28;20053;-74
2023/05/27 03:34:40;;;;;;;0.60;0.60;;;6.30;99.90;;;;;;5064327;28;20482;-74
2023/05/27 03:37:06;;;;;;;0.60;0.60;;;6.30;99.90;;;;;;5053315;28;20048;-73
2023/05/27 03:39:31;;;;;;;0.73;0.73;;;6.30;99.90;;;;;;5054559;28;20084;-74
2023/05/27 03:41:58;;;;;;;0.70;0.70;;;6.40;99.90;;;;;;5055700;28;20489;-74
2023/05/27 03:44:23;;;;;;;0.50;0.50;;;6.30;99.90;;;;;;5083105;28;20068;-74
2023/05/27 03:46:49;;;;;;;0.50;0.50;;;6.60;99.90;;;;;;5070993;28;20044;-74
2023/05/27 03:49:15;;;;;;;0.30;0.30;;;6.70;99.90;;;;;;5070499;28;20052;-74
2023/05/27 03:51:41;;;;;;;0.50;0.50;;;6.80;99.90;;;;;;5070456;28;20045;-74
2023/05/27 03:54:07;;;;;;;0.60;0.60;;;6.80;99.90;;;;;;5053935;28;20048;-74
2023/05/27 03:56:33;;;;;;;0.40;0.40;;;6.90;99.90;;;;;;5070779;28;20496;-73
2023/05/27 03:58:59;;;;;;;0.50;0.50;;;7.10;99.90;;;;;;5053827;28;20518;-74
2023/05/27 04:01:24;;;;;;;0.50;0.50;;;7.20;99.90;;;;;;5050396;28;20464;-74
2023/05/27 04:03:50;;;;;;;0.47;0.47;;;7.30;99.90;;;;;;5034341;28;20127;-75
2023/05/27 04:06:16;;;;;;;;;;;7.40;99.90;;;;;;5052105;28;20041;-74
2023/05/27 04:08:42;;;;;;;0.60;0.60;;;7.50;99.90;;;;;;5050873;28;19916;-74
2023/05/27 04:11:15;;;;;;;0.50;0.50;;;7.60;99.90;;;;;;5034085;28;20044;-74
2023/05/27 04:13:41;;;;;;;0.40;0.40;;;7.70;99.90;;;;;;5023753;28;20044;-74
2023/05/27 04:16:07;;;;;;;0.50;0.50;;;7.80;99.90;;;;;;5091028;28;20039;-74
2023/05/27 04:18:35;;;;;;;0.40;0.40;;;7.80;99.90;;;;;;5057050;28;20040;-74
2023/05/27 04:21:01;;;;;;;0.30;0.30;;;7.90;99.90;;;;;;5107487;28;20249;-74
2023/05/27 04:23:26;;;;;;;0.40;0.40;;;7.90;99.90;;;;;;5073233;28;20043;-74
2023/05/27 04:25:52;;;;;;;0.50;0.50;;;8.00;99.90;;;;;;5062522;28;20048;-74
2023/05/27 04:28:18;;;;;;;0.50;0.50;;;8.10;99.90;;;;;;5069647;28;20044;-74
2023/05/27 04:30:48;;;;;;;0.32;0.32;;;8.20;99.90;;;;;;5070285;28;20093;-74
2023/05/27 04:33:15;;;;;;;0.32;0.32;;;8.30;99.90;;;;;;5069570;28;20040;-74
2023/05/27 04:35:43;;;;;;;0.50;0.50;;;8.40;99.90;;;;;;5069999;28;20075;-74
2023/05/27 04:38:16;;;;;;;0.43;0.43;;;8.50;99.90;;;;;;5054520;28;20446;-74
2023/05/27 04:40:45;;;;;;;0.40;0.40;;;8.60;99.90;;;;;;5070282;28;20051;-74
2023/05/27 04:43:14;;;;;;;0.40;0.40;;;8.70;99.90;;;;;;5064625;28;20078;-74
2023/05/27 04:45:40;;;;;;;1.40;1.30;;;8.70;99.90;;;;;;5039635;28;20115;-74
2023/05/27 04:48:06;;;;;;;0.30;0.30;;;8.80;99.90;;;;;;5053596;28;20464;-74
2023/05/27 04:50:31;;;;;;;;;;;8.80;99.90;;;;;;5069964;28;20410;-74
2023/05/27 04:52:57;;;;;;;0.40;0.40;;;8.80;99.90;;;;;;5069448;28;19920;-72
2023/05/27 04:55:23;;;;;;;0.30;0.30;;;8.80;99.90;;;;;;5035087;28;20044;-74
2023/05/27 04:57:49;;;;;;;0.50;0.50;;;8.70;99.90;;;;;;5033287;28;20037;-74
2023/05/27 05:00:22;;;;;;;0.40;0.40;;;8.70;99.90;;;;;;5049584;28;20073;-74
2023/05/27 05:02:48;;;;;;;0.50;0.50;;;8.80;99.90;;;;;;5049675;28;20056;-74
2023/05/27 05:05:14;;;;;;;0.40;0.40;;;8.80;99.90;;;;;;5049175;28;20044;-74
2023/05/27 05:07:41;;;;;;;0.45;0.45;;;8.80;99.90;;;;;;5049926;28;20140;-74
2023/05/27 05:10:08;;;;;;;0.60;0.60;;;8.90;99.90;;;;;;5049309;28;20160;-74
2023/05/27 05:12:35;;;;;;;0.30;0.30;;;9.00;99.90;;;;;;5032698;28;20053;-74
2023/05/27 05:15:00;;;;;;;0.32;0.32;;;9.00;99.90;;;;;;5077394;28;20139;-74
2023/05/27 05:17:26;;;;;;;0.55;0.55;;;9.00;99.90;;;;;;5106950;28;20131;-74
2023/05/27 05:19:52;;;;;;;0.50;0.50;;;9.00;99.90;;;;;;5072795;28;20044;-74
2023/05/27 05:22:19;;;;;;;0.35;0.35;;;9.00;99.90;;;;;;5089297;28;20040;-74
2023/05/27 05:24:46;;;;;;;0.40;0.40;;;9.10;99.90;;;;;;5104813;28;20048;-74
2023/05/27 05:27:12;;;;;;;0.43;0.43;;;9.20;99.90;;;;;;5069383;28;20044;-74
2023/05/27 05:29:38;;;;;;;0.35;0.35;;;9.20;99.90;;;;;;5052704;28;20051;-74
2023/05/27 05:32:04;;;;;;;0.40;0.40;;;9.30;99.90;;;;;;5069992;28;20048;-74
2023/05/27 05:34:30;;;;;;;0.40;0.40;;;9.30;99.90;;;;;;5052443;28;20055;-74
2023/05/27 05:36:56;;;;;;;0.50;0.50;;;9.40;99.90;;;;;;5068829;28;20673;-73
2023/05/27 05:39:22;;;;;;;0.47;0.47;;;9.50;99.90;;;;;;5068351;28;20052;-74
2023/05/27 05:41:48;;;;;;;;;;;9.60;99.90;;;;;;5052875;28;20044;-74
2023/05/27 05:44:14;;;;;;;0.38;0.38;;;9.70;99.90;;;;;;5088377;28;20292;-74
2023/05/27 05:46:40;;;;;;;0.47;0.47;;;9.70;99.90;;;;;;5089095;28;20410;-74
2023/05/27 05:49:05;;;;;;;0.40;0.40;;;9.80;99.90;;;;;;5059869;28;20051;-74
2023/05/27 05:51:31;;;;;;;0.40;0.40;;;9.90;99.90;;;;;;5051519;28;20453;-75
2023/05/27 05:53:57;;;;;;;0.40;0.40;;;10.00;99.90;;;;;;5068404;28;20040;-74
2023/05/27 05:56:25;;;;;;;0.60;0.60;;;10.20;99.90;;;;;;5051840;28;20051;-75
2023/05/27 05:58:51;;;;;;;0.45;0.45;;;10.30;99.90;;;;;;5068678;28;20099;-74
2023/05/27 06:01:17;;;;;;;0.57;0.57;;;10.40;99.90;;;;;;5051067;28;20099;-73
2023/05/27 06:03:43;;;;;;;0.30;0.30;;;10.50;99.90;;;;;;5068558;28;20451;-73
2023/05/27 06:06:09;;;;;;;0.40;0.40;;;10.50;99.90;;;;;;5068695;28;20056;-73
2023/05/27 06:08:35;;;;;;;;;;;10.60;99.90;;;;;;5072196;28;20063;-73
2023/05/27 06:11:00;;;;;;;0.60;0.60;;;10.70;99.90;;;;;;5080144;28;19916;-73
2023/05/27 06:13:26;;;;;;;0.43;0.43;;;10.70;99.90;;;;;;5086985;28;20098;-73
2023/05/27 06:15:52;;;;;;;0.38;0.38;;;10.80;99.90;;;;;;5068586;28;20051;-74
2023/05/27 06:18:17;;;;;;;0.40;0.40;;;10.80;99.90;;;;;;5051131;28;20036;-73
2023/05/27 06:20:46;;;;;;;0.30;0.30;;;10.90;99.90;;;;;;5069908;28;20064;-73
2023/05/27 06:23:12;;;;;;;0.50;0.50;;;10.90;99.90;;;;;;5068407;28;20109;-73
2023/05/27 06:25:38;;;;;;;0.40;0.40;;;11.00;99.90;;;;;;5069159;28;20041;-73
2023/05/27 06:28:03;;;;;;;0.50;0.50;;;11.00;99.90;;;;;;5035258;28;20135;-74
2023/05/27 06:30:29;;;;;;;0.32;0.32;;;11.20;99.90;;;;;;5034733;28;20485;-73
2023/05/27 06:32:55;;;;;;;0.50;0.50;;;11.30;99.90;;;;;;5051040;28;20056;-74
2023/05/27 06:35:21;;;;;;;0.30;0.30;;;11.40;99.90;;;;;;5050913;28;20040;-74
2023/05/27 06:37:46;;;;;;;0.40;0.40;;;11.60;99.90;;;;;;5051199;28;20044;-74
2023/05/27 06:40:12;;;;;;;0.20;0.20;;;11.70;99.90;;;;;;5053751;28;20052;-74
2023/05/27 06:42:38;;;;;;;0.40;0.40;;;11.90;99.90;;;;;;5075086;28;20175;-74
2023/05/27 06:45:05;;;;;;;0.32;0.32;;;12.10;99.90;;;;;;5075321;28;20040;-74
2023/05/27 06:47:30;;;;;;;0.50;0.50;;;12.30;99.90;;;;;;5068460;28;20477;-74
2023/05/27 06:49:56;;;;;;;0.73;0.73;;;12.50;99.90;;;;;;5053097;28;20040;-74
2023/05/27 06:52:22;;;;;;;0.30;0.30;;;12.70;99.90;;;;;;5064227;28;20044;-74
2023/05/27 06:54:47;;;;;;;0.30;0.30;;;12.80;99.90;;;;;;5053925;28;20463;-74
2023/05/27 06:57:13;;;;;;;0.40;0.40;;;12.90;99.90;;;;;;5067794;28;20040;-74
2023/05/27 06:59:40;;;;;;;0.40;0.40;;;13.00;99.90;;;;;;5050489;28;20059;-73
2023/05/27 07:02:06;;;;;;;0.45;0.45;;;13.00;99.90;;;;;;5067801;28;20163;-74
2023/05/27 07:04:32;;;;;;;0.40;0.40;;;13.10;99.90;;;;;;5067951;28;20131;-74
2023/05/27 07:06:58;;;;;;;0.90;0.63;;;13.30;99.90;;;;;;5076552;28;20035;-74
2023/05/27 07:09:24;;;;;;;0.20;0.20;;;13.40;99.90;;;;;;5104650;28;20404;-74
2023/05/27 07:11:49;;;;;;;0.30;0.30;;;13.40;99.90;;;;;;5104719;28;20056;-74
2023/05/27 07:14:15;;;;;;;0.60;0.60;;;13.50;99.90;;;;;;5084522;28;20051;-73
2023/05/27 07:16:41;;;;;;;0.30;0.30;;;13.60;99.90;;;;;;5055053;28;20045;-74
2023/05/27 07:19:07;;;;;;;0.50;0.50;;;13.70;99.90;;;;;;5071926;28;20043;-74
2023/05/27 07:21:38;;;;;;;0.43;0.43;;;13.80;99.90;;;;;;5055168;28;20101;-74
2023/05/27 07:24:04;;;;;;;0.30;0.30;;;14.00;99.90;;;;;;5071365;28;20048;-74
2023/05/27 07:26:30;;;;;;;0.30;0.30;;;14.00;99.90;;;;;;5070732;28;20044;-74
2023/05/27 07:29:00;;;;;;;0.68;0.68;;;14.10;99.90;;;;;;5054768;28;20569;-75
2023/05/27 07:31:29;;;;;;;0.30;0.30;;;14.10;99.90;;;;;;5054510;28;20048;-74
2023/05/27 07:33:55;;;;;;;0.25;0.25;;;14.10;99.90;;;;;;5071073;28;20048;-75
2023/05/27 07:36:21;;;;;;;;;;;14.10;99.90;;;;;;5071495;28;20045;-74
2023/05/27 07:38:46;;;;;;;0.20;0.20;;;14.00;99.90;;;;;;5070490;28;20011;-74
2023/05/27 07:41:13;;;;;;;0.30;0.30;;;14.10;99.90;;;;;;5041174;28;20051;-74
2023/05/27 07:43:39;;;;;;;;;;;14.20;99.90;;;;;;5071287;28;20066;-74
2023/05/27 07:46:04;;;;;;;0.40;0.40;;;14.30;99.90;;;;;;5071203;28;20368;-74
2023/05/27 07:48:30;;;;;;;0.20;0.20;;;14.40;99.90;;;;;;5054027;28;20040;-74
2023/05/27 07:50:56;;;;;;;0.32;0.32;;;14.60;99.90;;;;;;5072064;28;20035;-74
2023/05/27 07:53:22;;;;;;;;;;;14.80;99.90;;;;;;5069889;28;20071;-74
2023/05/27 07:55:47;;;;;;;0.22;0.22;;;15.00;99.90;;;;;;5070546;28;19978;-74
2023/05/27 07:58:13;;;;;;;0.30;0.30;;;15.20;99.90;;;;;;5070623;28;20037;-74
2023/05/27 08:00:39;;;;;;;;;;;15.40;99.90;;;;;;5071011;28;20119;-74
2023/05/27 08:03:05;;;;;;;0.25;0.25;;;15.50;99.90;;;;;;5058003;28;19924;-74
2023/05/27 08:05:32;;;;;;;0.20;0.20;;;15.60;99.90;;;;;;5091136;28;20075;-74
2023/05/27 08:07:58;;;;;;;0.30;0.30;;;15.30;99.90;;;;;;5091702;28;20052;-74
2023/05/27 08:10:23;;;;;;;2.17;1.98;;;15.20;99.90;;;;;;5091073;28;20379;-74
2023/05/27 08:12:49;;;;;;;0.32;0.32;;;15.20;99.90;;;;;;5107314;28;20048;-75
2023/05/27 08:15:15;;;;;;;;;;;15.10;99.90;;;;;;5059237;28;20044;-75
2023/05/27 08:17:42;;;;;;;0.30;0.30;;;15.00;99.90;;;;;;5053034;28;19916;-75
2023/05/27 08:20:08;;;;;;;0.30;0.30;;;15.20;99.90;;;;;;5053988;28;20504;-74
2023/05/27 08:22:34;;;;;;;1.05;0.70;;;15.30;99.90;;;;;;5070119;28;20129;-74
2023/05/27 08:25:00;;;;;;;;;;;15.30;99.90;;;;;;5071080;28;20517;-74
2023/05/27 08:27:47;;;;;;;0.93;0.93;;;15.30;99.90;;;;;;5072370;28;19924;-73
2023/05/27 08:30:14;;;;;;;0.30;0.30;;;15.40;99.90;;;;;;5070480;28;20055;-74
2023/05/27 08:32:43;;;;;;;0.40;0.40;;;15.50;99.90;;;;;;5070359;28;20498;-74
2023/05/27 08:35:10;;;;;;;0.93;0.70;;;15.70;99.90;;;;;;5070695;28;20036;-74
2023/05/27 08:37:37;;;;;;;0.20;0.20;;;15.90;99.90;;;;;;5070038;28;20040;-73
2023/05/27 08:40:06;;;;;;;2.35;0.35;;;16.10;99.90;;;;;;5053012;28;20092;-74
2023/05/27 08:42:33;;;;;;;0.35;0.35;;;16.20;99.90;;;;;;5062802;28;20080;-74
2023/05/27 08:45:00;;;;;;;1.40;0.43;;;16.40;99.90;;;;;;5077345;28;20049;-74
2023/05/27 08:47:30;;;;;;;0.30;0.30;;;16.50;99.90;;;;;;5052977;28;20093;-74
2023/05/27 08:49:58;;;;;;;1.08;0.52;;;16.60;99.90;;;;;;5050656;28;20049;-74
2023/05/27 08:52:26;;;;;;;0.20;0.20;;;16.60;99.90;;;;;;5059847;28;20052;-74
2023/05/27 08:54:53;;;;;;;0.77;0.77;;;16.80;99.90;;;;;;5055825;28;20067;-74
2023/05/27 08:57:24;;;;;;;0.40;0.40;;;16.90;99.90;;;;;;5053165;28;20044;-75
2023/05/27 08:59:51;;;;;;;0.50;0.50;;;16.90;99.90;;;;;;5081080;28;20043;-74
2023/05/27 09:02:20;;;;;;;0.50;0.50;;;16.80;99.90;;;;;;5089769;28;20050;-74
2023/05/27 09:04:46;;;;;;;0.10;0.10;;;16.70;99.90;;;;;;5089344;28;20501;-75
2023/05/27 09:07:11;;;;;;;;;;;16.90;99.90;;;;;;5089956;28;20051;-74
2023/05/27 09:09:38;;;;;;;3.30;0.93;;;16.70;99.90;;;;;;5072140;28;19920;-74
2023/05/27 09:12:05;;;;;;;0.38;0.28;;;16.70;99.90;;;;;;5072301;28;20047;-74
2023/05/27 09:14:32;;;;;;;0.20;0.20;;;16.70;99.90;;;;;;5063057;28;20044;-74
2023/05/27 09:17:04;;;;;;;0.30;0.30;;;16.60;99.90;;;;;;5051972;28;20045;-74
2023/05/27 09:19:30;;;;;;;0.30;0.30;;;16.50;99.90;;;;;;5068913;28;20082;-74
2023/05/27 09:21:56;;;;;;;0.82;0.82;;;16.40;99.90;;;;;;5068868;28;20444;-74
2023/05/27 09:24:25;;;;;;;;;;;16.30;99.90;;;;;;5070307;28;20398;-75
2023/05/27 09:26:52;;;;;;;0.52;0.47;;;16.30;99.90;;;;;;5069096;28;20054;-74
2023/05/27 09:29:24;;;;;;;1.45;0.50;;;16.40;99.90;;;;;;5052278;28;20048;-74
2023/05/27 09:31:54;;;;;;;0.20;0.20;;;16.50;99.90;;;;;;5051573;28;20044;-73
2023/05/27 09:34:20;;;;;;;0.82;0.82;;;16.60;99.90;;;;;;5068379;28;20048;-75
2023/05/27 09:36:50;;;;;;;0.20;0.20;;;16.80;99.90;;;;;;5049334;28;20051;-75
2023/05/27 09:39:18;;;;;;;0.20;0.20;;;16.90;99.90;;;;;;5048925;28;20063;-76
2023/05/27 09:41:51;;;;;;;0.22;0.22;;;16.70;99.90;;;;;;5031557;28;20057;-75
2023/05/27 09:44:16;;;;;;;0.30;0.30;;;16.50;99.90;;;;;;5038577;28;20040;-75
2023/05/27 09:46:45;;;;;;;0.32;0.32;;;16.30;99.90;;;;;;5069166;28;20052;-74
2023/05/27 09:49:17;;;;;;;0.68;0.68;;;16.40;99.90;;;;;;5068726;28;20048;-75
2023/05/27 09:51:45;;;;;;;0.20;0.20;;;16.50;99.90;;;;;;5051388;28;20080;-74
2023/05/27 09:54:17;;;;;;;0.28;0.25;;;16.70;99.90;;;;;;5068595;28;20123;-74
2023/05/27 09:56:45;;;;;;;0.10;0.10;;;16.80;99.90;;;;;;5084964;28;20047;-74
2023/05/27 09:59:12;;;;;;;0.28;0.28;;;16.90;99.90;;;;;;5072046;28;20370;-74
2023/05/27 10:01:40;;;;;;;0.40;0.40;;;17.00;99.90;;;;;;5105590;28;20134;-74
2023/05/27 10:04:06;;;;;;;0.47;0.47;;;17.10;99.90;;;;;;5088484;28;20052;-74
2023/05/27 10:06:33;;;;;;;0.77;0.77;;;17.20;99.90;;;;;;5088611;28;20046;-75
2023/05/27 10:09:02;;;;;;;0.45;0.45;;;17.10;99.90;;;;;;5088064;28;20070;-74
2023/05/27 10:11:38;;;;;;;0.80;0.60;;;17.00;99.90;;;;;;5089699;28;20048;-74
2023/05/27 10:14:05;;;;;;;0.30;0.30;;;17.10;99.90;;;;;;5082180;28;20047;-75
2023/05/27 10:16:31;;;;;;;0.22;0.22;;;17.40;99.90;;;;;;5068396;28;20565;-75
2023/05/27 10:18:57;;;;;;;;;;;17.50;99.90;;;;;;5068692;28;20044;-75
2023/05/27 10:21:27;;;;;;;0.10;0.10;;;17.60;99.90;;;;;;5068400;28;19920;-75
2023/05/27 10:23:57;;;;;;;0.32;0.32;;;17.70;99.90;;;;;;5068126;28;20078;-75
2023/05/27 10:27:00;;;;;;;0.17;0.17;;;17.80;99.90;;;;;;5068217;28;20131;-75
2023/05/27 10:29:37;;;;;;;0.40;0.40;;;17.70;99.90;;;;;;5048450;28;20400;-75
2023/05/27 10:32:03;;;;;;;0.20;0.20;;;17.70;99.90;;;;;;5067959;28;20049;-75
2023/05/27 10:34:35;;;;;;;;;;;17.80;99.90;;;;;;5068615;28;20044;-75
2023/05/27 10:37:02;;;;;;;0.20;0.20;;;18.00;99.90;;;;;;5068106;28;19927;-75
2023/05/27 10:39:28;;;;;;;0.28;0.28;;;18.10;99.90;;;;;;5068902;28;20052;-75
2023/05/27 10:41:55;;;;;;;6.28;0.40;;;18.20;99.90;;;;;;5053121;28;20056;-75
2023/05/27 10:44:37;;;;;;;0.22;0.22;;;18.30;99.90;;;;;;5068300;28;20032;-75
2023/05/27 10:47:11;;;;;;;1.45;0.75;;;18.30;99.90;;;;;;5069710;28;20045;-75
2023/05/27 10:49:39;;;;;;;0.47;0.47;;;18.10;99.90;;;;;;5072468;28;20048;-75
2023/05/27 10:52:16;;;;;;;0.50;0.50;;;18.00;99.90;;;;;;5082249;28;20048;-75
2023/05/27 10:54:43;;;;;;;0.20;0.20;;;17.90;99.90;;;;;;5075765;28;20052;-75
2023/05/27 10:57:09;;;;;;;0.20;0.20;;;17.90;99.90;;;;;;5055024;28;20078;-75
2023/05/27 10:59:37;;;;;;;;;;;18.00;99.90;;;;;;5072444;28;20033;-75
2023/05/27 11:02:05;;;;;;;0.52;0.52;;;18.00;99.90;;;;;;5071508;28;19920;-75
2023/05/27 11:04:37;;;;;;;0.28;0.28;;;18.20;99.90;;;;;;5071686;28;20049;-75
2023/05/27 11:07:04;;;;;;;0.30;0.30;;;18.50;99.90;;;;;;5071387;28;20051;-75
2023/05/27 11:09:31;;;;;;;0.20;0.20;;;18.80;99.90;;;;;;5071994;28;20106;-75
2023/05/27 11:12:01;;;;;;;0.55;0.55;;;18.90;99.90;;;;;;5054415;28;20053;-75
2023/05/27 11:14:27;;;;;;;0.10;0.10;;;18.90;99.90;;;;;;5071036;28;20087;-75
2023/05/27 11:16:53;;;;;;;;;;;18.90;99.90;;;;;;5071644;28;20080;-75
2023/05/27 11:19:20;;;;;;;0.65;0.50;;;18.90;99.90;;;;;;5071124;28;19991;-75
2023/05/27 11:21:47;;;;;;;0.22;0.22;;;19.10;99.90;;;;;;5054164;28;20051;-75
2023/05/27 11:24:20;;;;;;;0.30;0.30;;;19.30;99.90;;;;;;5071055;28;20087;-75
2023/05/27 11:26:47;;;;;;;0.10;0.10;;;19.50;99.90;;;;;;5052418;28;20045;-75
2023/05/27 11:29:16;;;;;;;0.20;0.20;;;19.60;99.90;;;;;;5051038;28;20554;-75
2023/05/27 11:31:46;;;;;;;0.35;0.35;;;19.80;99.90;;;;;;5050959;28;20045;-75
2023/05/27 11:34:16;;;;;;;0.85;0.85;;;20.00;99.90;;;;;;5060424;28;20482;-75
2023/05/27 11:36:48;;;;;;;0.20;0.20;;;20.20;99.90;;;;;;5070866;28;20064;-75
2023/05/27 11:39:16;;;;;;;0.10;0.10;;;20.40;99.90;;;;;;5070275;28;20417;-76
2023/05/27 11:41:52;;;;;;;0.20;0.20;;;20.50;99.90;;;;;;5054721;28;20044;-75
2023/05/27 11:44:19;;;;;;;;;;;20.40;99.90;;;;;;5058644;28;20391;-75
2023/05/27 11:46:47;;;;;;;0.15;0.15;;;20.10;99.90;;;;;;5071814;28;19924;-76
2023/05/27 11:49:14;;;;;;;0.20;0.20;;;19.80;99.90;;;;;;5075240;28;20123;-75
2023/05/27 11:51:42;;;;;;;0.63;0.40;;;19.90;99.90;;;;;;5078602;28;20483;-75
2023/05/27 11:54:20;;;;;;;0.50;0.50;;;20.00;99.90;;;;;;5062305;28;20068;-75
2023/05/27 11:56:46;;;;;;;0.55;0.55;;;20.20;99.90;;;;;;5071766;28;20045;-75
2023/05/27 11:59:13;;;;;;;0.20;0.20;;;20.50;99.60;;;;;;5070762;28;20036;-75
2023/05/27 12:01:40;;;;;;;0.20;0.20;;;20.50;99.90;;;;;;5054591;28;20048;-75
2023/05/27 12:04:06;;;;;;;0.20;0.20;;;20.40;99.90;;;;;;5071743;28;20464;-75
2023/05/27 12:06:32;;;;;;;0.52;0.52;;;20.30;99.30;;;;;;5071608;28;20127;-75
2023/05/27 12:08:58;;;;;;;0.30;0.30;;;20.20;99.90;;;;;;5070985;28;20432;-75
2023/05/27 12:11:24;;;;;;;0.10;0.10;;;20.50;99.90;;;;;;5071117;28;20036;-75
2023/05/27 12:13:51;;;;;;;0.30;0.30;;;20.70;99.30;;;;;;5037314;28;20032;-75
2023/05/27 12:16:17;;;;;;;0.20;0.20;;;21.00;99.90;;;;;;5070133;28;20055;-75
2023/05/27 12:18:42;;;;;;;0.20;0.20;;;21.30;99.80;;;;;;5053493;28;20041;-75
2023/05/27 12:21:08;;;;;;;0.47;0.47;;;21.70;98.80;;;;;;5070027;28;20098;-75
2023/05/27 12:23:34;;;;;;;0.20;0.20;;;22.00;99.00;;;;;;5070109;28;20048;-75
2023/05/27 12:26:00;;;;;;;3.25;0.40;;;22.20;98.40;;;;;;5069625;28;20042;-75
2023/05/27 12:28:26;;;;;;;0.30;0.30;;;22.40;96.70;;;;;;5053356;28;20040;-75
2023/05/27 12:30:51;;;;;;;0.93;0.63;;;22.30;97.20;;;;;;5069541;28;20393;-75
2023/05/27 12:33:17;;;;;;;0.20;0.20;;;22.50;96.80;;;;;;5069783;28;20127;-75
2023/05/27 12:35:43;;;;;;;0.52;0.52;;;22.70;94.70;;;;;;5070417;28;20413;-76
2023/05/27 12:38:09;;;;;;;0.30;0.30;;;22.60;94.00;;;;;;5069677;28;20490;-75
2023/05/27 12:40:35;;;;;;;0.20;0.20;;;22.60;92.90;;;;;;5052962;28;20057;-75
2023/05/27 12:43:03;;;;;;;0.20;0.20;;;22.70;93.90;;;;;;5079754;28;20044;-76
2023/05/27 12:45:28;;;;;;;0.88;0.88;;;22.80;93.00;;;;;;5072967;28;20040;-76
2023/05/27 12:47:54;;;;;;;0.52;0.52;;;22.70;92.40;;;;;;5069102;28;20052;-75
2023/05/27 12:50:21;;;;;;;0.17;0.17;;;22.70;92.50;;;;;;5069676;28;20226;-76
2023/05/27 12:52:48;;;;;;;0.45;0.45;;;22.70;91.80;;;;;;5052144;28;20208;-75
2023/05/27 12:55:18;;;;;;;0.15;0.15;;;22.90;93.80;;;;;;5069490;28;20071;-75